Time;durP1;ratioP1;P1;durP2;ratioP2;P2;SDS_P1;SDS_P2;PMS_P1;PMS_P2;Temp;Humidity;BMP_temperature;BMP_pressure;BME280_temperature;BME280_humidity;BME280_pressure;Samples;Min_cycle;Max_cycle;Signal;HPM_P1;HPM_P2
2022/03/01 00:02:21;;;;;;;15.40;8.63;;;;;;;0.10;100.00;100220.84;5095356;28;20209;-58
2022/03/01 00:04:48;;;;;;;16.20;9.03;;;;;;;0.09;100.00;100220.84;5097144;28;20233;-65
2022/03/01 00:07:15;;;;;;;15.47;8.83;;;;;;;0.06;100.00;100219.22;5094982;28;20292;-65
2022/03/01 00:09:42;;;;;;;14.50;8.63;;;;;;;0.09;100.00;100214.16;5095261;28;20193;-57
2022/03/01 00:12:09;;;;;;;17.00;9.30;;;;;;;0.07;100.00;100210.81;5093547;28;20444;-58
2022/03/01 00:14:39;;;;;;;15.23;9.03;;;;;;;0.12;100.00;100214.09;5095594;28;20228;-66
2022/03/01 00:17:07;;;;;;;16.93;9.30;;;;;;;0.14;100.00;100211.56;5095127;28;20198;-65
2022/03/01 00:19:34;;;;;;;16.30;8.93;;;;;;;0.17;100.00;100212.34;5094359;28;20502;-66
2022/03/01 00:22:00;;;;;;;14.80;8.47;;;;;;;0.18;100.00;100209.00;5096590;28;20490;-64
2022/03/01 00:24:27;;;;;;;15.23;8.77;;;;;;;0.17;100.00;100207.31;5094646;28;20217;-65
2022/03/01 00:26:54;;;;;;;16.43;9.30;;;;;;;0.17;100.00;100212.34;5096450;28;20201;-57
2022/03/01 00:29:21;;;;;;;16.90;9.37;;;;;;;0.22;100.00;100210.63;5096042;28;20202;-65
2022/03/01 00:31:51;;;;;;;16.50;8.67;;;;;;;0.16;100.00;100205.66;5095643;28;20616;-65
2022/03/01 00:34:18;;;;;;;16.63;9.67;;;;;;;0.19;100.00;100200.59;5095008;28;20455;-58
2022/03/01 00:36:46;;;;;;;17.87;9.50;;;;;;;0.24;100.00;100212.31;5095123;28;20714;-57
2022/03/01 00:39:13;;;;;;;20.40;9.53;;;;;;;0.21;100.00;100203.94;5095172;28;20879;-58
2022/03/01 00:41:40;;;;;;;16.07;8.83;;;;;;;0.19;100.00;100200.59;5095613;28;20226;-57
2022/03/01 00:44:07;;;;;;;15.90;9.73;;;;;;;0.14;100.00;100199.81;5095089;28;20479;-65
2022/03/01 00:46:35;;;;;;;15.30;9.13;;;;;;;0.15;100.00;100204.00;5093261;28;20468;-57
2022/03/01 00:49:04;;;;;;;18.47;9.10;;;;;;;0.17;100.00;100202.28;5097151;28;20449;-57
2022/03/01 00:51:31;;;;;;;15.80;9.27;;;;;;;-0.03;100.00;100204.22;5095123;28;20503;-57
2022/03/01 00:53:58;;;;;;;18.17;8.87;;;;;;;0.06;100.00;100199.09;5094694;28;20451;-65
2022/03/01 00:56:25;;;;;;;17.63;9.53;;;;;;;0.02;100.00;100189.91;5093845;28;20468;-66
2022/03/01 00:58:52;;;;;;;16.70;9.50;;;;;;;-0.01;100.00;100187.44;5094597;28;20576;-66
2022/03/01 01:01:19;;;;;;;17.73;9.10;;;;;;;-0.01;100.00;100192.47;5095000;28;20218;-58
2022/03/01 01:03:46;;;;;;;18.30;9.67;;;;;;;-0.01;100.00;100192.47;5094522;28;20894;-58
2022/03/01 01:06:14;;;;;;;17.60;9.47;;;;;;;-0.01;100.00;100194.97;5094511;28;20467;-58
2022/03/01 01:08:41;;;;;;;16.37;9.90;;;;;;;-0.08;100.00;100190.88;5094273;28;20210;-66
2022/03/01 01:11:08;;;;;;;16.23;9.13;;;;;;;-0.15;100.00;100189.25;5094541;28;20514;-58
2022/03/01 01:13:35;;;;;;;17.70;8.93;;;;;;;-0.17;100.00;100185.94;5093838;28;20452;-58
2022/03/01 01:16:02;;;;;;;18.00;8.57;;;;;;;-0.14;100.00;100175.88;5095113;28;20475;-58
2022/03/01 01:18:29;;;;;;;16.33;9.57;;;;;;;-0.12;100.00;100180.00;5094078;28;20459;-58
2022/03/01 01:20:56;;;;;;;16.37;9.03;;;;;;;-0.09;100.00;100179.13;5093531;28;21072;-58
2022/03/01 01:23:24;;;;;;;18.40;9.30;;;;;;;-0.05;100.00;100176.59;5095852;28;20447;-59
2022/03/01 01:25:51;;;;;;;18.57;9.90;;;;;;;-0.10;100.00;100178.31;5094057;28;20494;-58
2022/03/01 01:28:18;;;;;;;15.63;9.30;;;;;;;-0.11;100.00;100178.34;5094366;28;20969;-58
2022/03/01 01:30:45;;;;;;;15.87;8.60;;;;;;;-0.06;100.00;100176.59;5094177;28;20997;-66
2022/03/01 01:33:12;;;;;;;17.77;9.17;;;;;;;-0.10;100.00;100172.47;5095054;28;20432;-66
2022/03/01 01:35:39;;;;;;;15.43;9.10;;;;;;;-0.13;100.00;100177.53;5094111;28;20870;-66
2022/03/01 01:38:06;;;;;;;15.57;9.03;;;;;;;-0.15;100.00;100174.19;5093590;28;20632;-66
2022/03/01 01:40:36;;;;;;;16.80;8.90;;;;;;;-0.06;100.00;100166.53;5093787;28;20502;-67
2022/03/01 01:43:06;;;;;;;15.60;8.83;;;;;;;-0.14;100.00;100170.84;5094284;28;20697;-59
2022/03/01 01:45:33;;;;;;;15.87;9.10;;;;;;;-0.12;100.00;100179.16;5093378;28;20566;-66
2022/03/01 01:48:03;;;;;;;18.67;9.57;;;;;;;-0.11;100.00;100170.81;5094707;28;20459;-66
2022/03/01 01:50:33;;;;;;;20.43;9.40;;;;;;;-0.10;100.00;100177.47;5095079;28;20555;-66
2022/03/01 01:53:00;;;;;;;16.17;9.37;;;;;;;-0.15;100.00;100176.69;5093380;28;20439;-58
2022/03/01 01:55:28;;;;;;;16.40;9.27;;;;;;;-0.20;100.00;100175.91;5092176;28;20468;-67
2022/03/01 01:57:59;;;;;;;15.27;9.03;;;;;;;-0.19;100.00;100167.53;5093576;28;20452;-66
2022/03/01 02:00:28;;;;;;;16.87;9.17;;;;;;;-0.18;100.00;100169.19;5096258;28;20499;-67
2022/03/01 02:02:57;;;;;;;15.30;9.37;;;;;;;-0.19;100.00;100165.03;5098146;28;20451;-59
2022/03/01 02:05:24;;;;;;;17.03;9.87;;;;;;;-0.14;100.00;100165.81;5097475;28;20463;-58
2022/03/01 02:07:51;;;;;;;18.20;9.30;;;;;;;-0.13;100.00;100164.94;5097665;28;20464;-67
2022/03/01 02:10:19;;;;;;;16.60;9.07;;;;;;;-0.10;100.00;100162.41;5098686;28;20476;-58
2022/03/01 02:12:46;;;;;;;18.40;9.50;;;;;;;-0.14;100.00;100168.31;5096836;28;20462;-59
2022/03/01 02:15:17;;;;;;;17.17;8.83;;;;;;;-0.24;100.00;100162.53;5097916;28;20570;-58
2022/03/01 02:17:45;;;;;;;17.00;9.63;;;;;;;-0.35;100.00;100157.66;5099025;28;20446;-66
2022/03/01 02:20:18;;;;;;;17.90;9.37;;;;;;;-0.38;100.00;100157.66;5097924;28;20858;-64
2022/03/01 02:22:45;;;;;;;17.03;7.90;;;;;;;-0.43;100.00;100159.41;5098397;28;20488;-66
2022/03/01 02:25:13;;;;;;;18.57;10.57;;;;;;;-0.48;100.00;100151.09;5098050;28;20480;-67
2022/03/01 02:27:40;;;;;;;20.07;10.40;;;;;;;-0.48;100.00;100151.09;5097835;28;20454;-58
2022/03/01 02:30:09;;;;;;;17.47;8.27;;;;;;;-0.54;100.00;100151.16;5098312;28;20478;-59
2022/03/01 02:32:37;;;;;;;19.83;10.30;;;;;;;-0.53;100.00;100146.09;5097574;28;20495;-58
2022/03/01 02:35:05;;;;;;;18.07;10.40;;;;;;;-0.48;100.00;100151.91;5096603;28;20475;-66
2022/03/01 02:37:34;;;;;;;19.83;11.63;;;;;;;-0.47;100.00;100145.19;5096827;28;20869;-58
2022/03/01 02:40:01;;;;;;;21.97;10.67;;;;;;;-0.46;100.00;100144.38;5097520;28;20472;-66
2022/03/01 02:42:30;;;;;;;22.50;11.20;;;;;;;-0.53;100.00;100153.63;5096271;28;20985;-59
2022/03/01 02:44:57;;;;;;;20.83;11.03;;;;;;;-0.53;100.00;100150.28;5096703;28;20463;-67
2022/03/01 02:47:25;;;;;;;24.13;12.03;;;;;;;-0.54;100.00;100143.63;5097822;28;20444;-66
2022/03/01 02:49:51;;;;;;;23.00;10.97;;;;;;;-0.51;100.00;100141.06;5097265;28;20472;-67
2022/03/01 02:52:19;;;;;;;20.43;10.87;;;;;;;-0.51;100.00;100136.03;5096594;28;20926;-59
2022/03/01 02:54:48;;;;;;;22.07;10.37;;;;;;;-0.54;100.00;100136.06;5095065;28;20483;-66
2022/03/01 02:57:15;;;;;;;20.60;11.17;;;;;;;-0.47;100.00;100138.53;5098395;28;20855;-58
2022/03/01 02:59:42;;;;;;;19.60;10.10;;;;;;;-0.51;100.00;100136.03;5096361;28;20550;-66
2022/03/01 03:02:12;;;;;;;20.27;9.80;;;;;;;-0.58;100.00;100139.44;5096603;28;20451;-66
2022/03/01 03:04:39;;;;;;;18.73;10.33;;;;;;;-0.57;100.00;100136.09;5098802;28;20795;-58
2022/03/01 03:07:06;;;;;;;19.47;10.30;;;;;;;-0.57;100.00;100131.09;5096116;28;20450;-64
2022/03/01 03:09:33;;;;;;;19.70;10.37;;;;;;;-0.56;100.00;100135.25;5095309;28;20464;-57
2022/03/01 03:12:01;;;;;;;18.37;10.07;;;;;;;-0.51;100.00;100136.88;5095221;28;20933;-66
2022/03/01 03:14:28;;;;;;;20.13;10.33;;;;;;;-0.45;100.00;100128.44;5096394;28;20626;-59
2022/03/01 03:16:55;;;;;;;20.80;11.13;;;;;;;-0.48;100.00;100131.81;5095190;28;20450;-65
2022/03/01 03:19:22;;;;;;;21.00;11.03;;;;;;;-0.54;100.00;100126.84;5095744;28;20478;-65
2022/03/01 03:21:49;;;;;;;20.37;10.70;;;;;;;-0.44;100.00;100125.06;5096399;28;20535;-64
2022/03/01 03:24:18;;;;;;;18.87;10.80;;;;;;;-0.34;100.00;100128.34;5095796;28;20464;-66
2022/03/01 03:26:45;;;;;;;21.37;11.87;;;;;;;-0.49;100.00;100130.16;5095562;28;21044;-59
2022/03/01 03:29:13;;;;;;;24.33;11.50;;;;;;;-0.51;100.00;100126.81;5094795;28;20460;-65
2022/03/01 03:31:42;;;;;;;23.03;12.27;;;;;;;-0.35;100.00;100129.16;5098152;28;20514;-57
2022/03/01 03:34:10;;;;;;;21.37;11.73;;;;;;;-0.34;100.00;100124.13;5095251;28;20448;-65
2022/03/01 03:36:38;;;;;;;20.73;11.33;;;;;;;-0.28;100.00;100120.72;5096544;28;20504;-65
2022/03/01 03:39:08;;;;;;;21.83;11.13;;;;;;;-0.25;100.00;100118.19;5096243;28;20452;-65
2022/03/01 03:41:35;;;;;;;18.90;11.30;;;;;;;-0.29;100.00;100119.91;5097446;28;20463;-65
2022/03/01 03:44:02;;;;;;;21.40;11.33;;;;;;;-0.30;100.00;100118.22;5096042;28;20493;-58
2022/03/01 03:46:30;;;;;;;22.37;12.37;;;;;;;-0.26;100.00;100124.88;5095479;28;20470;-65
2022/03/01 03:48:57;;;;;;;21.00;11.27;;;;;;;-0.18;100.00;100118.94;5095252;28;20483;-60
2022/03/01 03:51:25;;;;;;;22.30;11.50;;;;;;;-0.16;100.00;100124.78;5097783;28;20524;-67
2022/03/01 03:53:52;;;;;;;21.13;11.00;;;;;;;-0.27;100.00;100115.66;5095906;28;20838;-65
2022/03/01 03:56:19;;;;;;;18.83;11.30;;;;;;;-0.25;100.00;100106.44;5095287;28;20456;-64
2022/03/01 03:58:46;;;;;;;20.23;10.70;;;;;;;-0.29;100.00;100109.84;5095157;28;20454;-65
2022/03/01 04:01:13;;;;;;;24.03;12.33;;;;;;;-0.30;100.00;100109.84;5094006;28;20222;-57
2022/03/01 04:03:41;;;;;;;24.13;12.87;;;;;;;-0.38;100.00;100099.88;5095570;28;20440;-57
2022/03/01 04:06:08;;;;;;;19.00;11.07;;;;;;;-0.40;100.00;100109.13;5094976;28;20468;-57
2022/03/01 04:08:35;;;;;;;20.13;11.27;;;;;;;-0.50;100.00;100102.53;5094826;28;20451;-58
2022/03/01 04:11:02;;;;;;;20.97;11.33;;;;;;;-0.51;100.00;100100.88;5094948;28;20483;-57
2022/03/01 04:13:29;;;;;;;22.50;11.53;;;;;;;-0.50;100.00;100095.00;5096277;28;20470;-65
2022/03/01 04:15:56;;;;;;;21.67;11.20;;;;;;;-0.48;100.00;100095.81;5095238;28;20492;-57
2022/03/01 04:18:23;;;;;;;19.37;10.37;;;;;;;-0.51;100.00;100095.84;5097123;28;20452;-65
2022/03/01 04:20:51;;;;;;;19.50;10.27;;;;;;;-0.49;100.00;100089.13;5095331;28;20486;-57
2022/03/01 04:23:18;;;;;;;21.13;10.87;;;;;;;-0.50;100.00;100087.47;5095681;28;20451;-57
2022/03/01 04:25:45;;;;;;;25.60;12.20;;;;;;;-0.57;100.00;100088.38;5096148;28;20482;-57
2022/03/01 04:28:13;;;;;;;19.33;10.33;;;;;;;-0.56;100.00;100092.56;5096345;28;20444;-57
2022/03/01 04:30:40;;;;;;;21.47;11.43;;;;;;;-0.58;100.00;100095.09;5096217;28;20480;-57
2022/03/01 04:33:07;;;;;;;25.47;12.37;;;;;;;-0.57;100.00;100101.78;5094518;28;20474;-65
2022/03/01 04:35:35;;;;;;;23.87;11.20;;;;;;;-0.54;100.00;100098.41;5095952;28;20476;-65
2022/03/01 04:38:03;;;;;;;22.67;11.83;;;;;;;-0.53;100.00;100093.34;5094647;28;20452;-65
2022/03/01 04:40:31;;;;;;;21.80;10.93;;;;;;;-0.50;100.00;100097.50;5096837;28;20938;-57
2022/03/01 04:42:58;;;;;;;17.87;10.43;;;;;;;-0.54;100.00;100090.88;5093892;28;20440;-57
2022/03/01 04:45:25;;;;;;;25.83;11.73;;;;;;;-0.55;100.00;100085.00;5094590;28;20848;-65
2022/03/01 04:47:52;;;;;;;20.83;11.10;;;;;;;-0.50;100.00;100092.47;5095635;28;20452;-65
2022/03/01 04:50:19;;;;;;;19.97;10.60;;;;;;;-0.54;100.00;100095.88;5095578;28;20472;-65
2022/03/01 04:52:46;;;;;;;22.60;11.67;;;;;;;-0.53;100.00;100095.03;5094968;28;21035;-57
2022/03/01 04:55:15;;;;;;;19.80;10.27;;;;;;;-0.52;100.00;100109.28;5094522;28;20473;-66
2022/03/01 04:57:43;;;;;;;22.70;11.80;;;;;;;-0.48;100.00;100100.84;5094760;28;20452;-57
2022/03/01 05:00:12;;;;;;;23.90;12.53;;;;;;;-0.50;100.00;100097.50;5095821;28;20474;-58
2022/03/01 05:02:40;;;;;;;23.07;12.83;;;;;;;-0.43;100.00;100103.31;5095986;28;20444;-57
2022/03/01 05:05:10;;;;;;;24.33;12.20;;;;;;;-0.35;100.00;100107.41;5094701;28;20527;-65
2022/03/01 05:07:39;;;;;;;27.00;13.27;;;;;;;-0.37;100.00;100103.25;5095403;28;20843;-65
2022/03/01 05:10:07;;;;;;;23.70;12.37;;;;;;;-0.32;100.00;100112.41;5094352;28;20468;-57
2022/03/01 05:12:43;;;;;;;24.03;12.27;;;;;;;-0.20;100.00;100110.56;5093800;28;20487;-61
2022/03/01 05:15:12;;;;;;;25.03;13.13;;;;;;;-0.24;100.00;100105.56;5095417;28;20538;-58
2022/03/01 05:17:40;;;;;;;22.97;11.93;;;;;;;-0.29;100.00;100106.47;5094248;28;20476;-57
2022/03/01 05:20:08;;;;;;;24.13;12.07;;;;;;;-0.27;100.00;100114.84;5093461;28;20559;-65
2022/03/01 05:22:36;;;;;;;22.20;11.97;;;;;;;-0.20;100.00;100115.59;5095227;28;20959;-65
2022/03/01 05:25:03;;;;;;;21.70;12.00;;;;;;;-0.37;100.00;100119.16;5094449;28;20598;-64
2022/03/01 05:27:31;;;;;;;22.73;12.43;;;;;;;-0.31;100.00;100121.59;5093630;28;20486;-57
2022/03/01 05:29:59;;;;;;;23.43;12.87;;;;;;;-0.33;100.00;100115.75;5094209;28;20484;-66
2022/03/01 05:32:27;;;;;;;29.40;14.63;;;;;;;-0.26;100.00;100117.34;5094389;28;20491;-66
2022/03/01 05:34:53;;;;;;;38.77;17.10;;;;;;;-0.22;100.00;100122.34;5097514;28;20514;-61
2022/03/01 05:37:21;;;;;;;43.50;17.83;;;;;;;-0.19;100.00;100132.34;5098636;28;20455;-57
2022/03/01 05:39:48;;;;;;;35.97;16.33;;;;;;;-0.19;100.00;100125.63;5098388;28;20889;-61
2022/03/01 05:42:15;;;;;;;28.60;14.13;;;;;;;-0.26;100.00;100127.41;5097927;28;20466;-66
2022/03/01 05:44:42;;;;;;;23.57;12.70;;;;;;;-0.13;100.00;100129.75;5098126;28;20455;-65
2022/03/01 05:47:11;;;;;;;21.37;12.27;;;;;;;-0.17;100.00;100128.16;5099316;28;20483;-58
2022/03/01 05:49:38;;;;;;;32.40;16.13;;;;;;;-0.18;100.00;100128.97;5098601;28;20452;-57
2022/03/01 05:52:05;;;;;;;28.20;12.83;;;;;;;-0.25;100.00;100129.06;5097915;28;20588;-65
2022/03/01 05:54:32;;;;;;;24.57;13.73;;;;;;;-0.09;100.00;100137.25;5096332;28;20973;-66
2022/03/01 05:57:00;;;;;;;24.47;13.73;;;;;;;0.02;100.00;100131.25;5097806;28;20470;-65
2022/03/01 05:59:27;;;;;;;30.20;16.50;;;;;;;0.09;100.00;100131.19;5096340;28;20497;-66
2022/03/01 06:01:54;;;;;;;24.27;14.13;;;;;;;0.16;100.00;100130.22;5099338;28;20454;-65
2022/03/01 06:04:23;;;;;;;21.90;12.67;;;;;;;0.26;100.00;100140.16;5098731;28;20666;-62
2022/03/01 06:06:50;;;;;;;24.13;12.20;;;;;;;0.23;100.00;100130.97;5098900;28;20956;-64
2022/03/01 06:09:16;;;;;;;21.73;11.37;;;;;;;0.37;100.00;100133.31;5098068;28;20279;-57
2022/03/01 06:11:43;;;;;;;22.53;11.97;;;;;;;0.43;100.00;100135.75;5098188;28;20474;-65
2022/03/01 06:14:10;;;;;;;19.50;10.50;;;;;;;0.54;100.00;100145.66;5097548;28;20831;-65
2022/03/01 06:16:37;;;;;;;20.70;12.03;;;;;;;0.63;100.00;100140.50;5096412;28;20230;-57
2022/03/01 06:19:05;;;;;;;24.13;12.27;;;;;;;0.65;100.00;100142.13;5095612;28;20206;-66
2022/03/01 06:21:33;;;;;;;23.93;13.17;;;;;;;0.73;100.00;100146.22;5096849;28;20252;-58
2022/03/01 06:24:02;;;;;;;19.40;11.87;;;;;;;0.72;100.00;100144.56;5095976;28;20209;-58
2022/03/01 06:26:29;;;;;;;26.23;13.43;;;;;;;0.73;100.00;100146.22;5095030;28;20320;-59
2022/03/01 06:28:57;;;;;;;24.80;12.80;;;;;;;0.77;100.00;100145.31;5095490;28;20197;-65
2022/03/01 06:31:23;;;;;;;23.40;13.47;;;;;;;0.79;100.00;100146.16;5096177;28;20229;-65
2022/03/01 06:33:50;;;;;;;29.67;14.70;;;;;;;0.80;100.00;100147.78;5095735;28;20230;-65
2022/03/01 06:36:17;;;;;;;27.90;14.33;;;;;;;0.84;100.00;100149.41;5099085;28;20230;-63
2022/03/01 06:38:46;;;;;;;24.63;12.97;;;;;;;0.88;100.00;100146.00;5096103;28;20590;-58
2022/03/01 06:41:13;;;;;;;24.47;13.20;;;;;;;0.83;100.00;100145.22;5098797;28;20265;-58
2022/03/01 06:43:40;;;;;;;24.00;12.90;;;;;;;0.86;100.00;100152.72;5098236;28;20212;-65
2022/03/01 06:46:09;;;;;;;22.47;11.53;;;;;;;0.88;100.00;100148.50;5096148;28;20283;-59
2022/03/01 06:48:36;;;;;;;20.77;12.10;;;;;;;0.91;100.00;100148.47;5097287;28;20206;-57
2022/03/01 06:51:05;;;;;;;21.27;11.33;;;;;;;0.95;100.00;100151.75;5097491;28;20230;-58
2022/03/01 06:53:32;;;;;;;23.23;12.63;;;;;;;0.97;100.00;100148.38;5096695;28;20233;-57
2022/03/01 06:56:00;;;;;;;26.57;11.77;;;;;;;0.94;100.00;100145.91;5097326;28;20240;-57
2022/03/01 06:58:27;;;;;;;21.30;11.97;;;;;;;1.00;100.00;100145.78;5097005;28;20202;-65
2022/03/01 07:00:56;;;;;;;22.43;12.63;;;;;;;1.05;100.00;100145.72;5097896;28;20233;-65
2022/03/01 07:03:22;;;;;;;22.87;12.27;;;;;;;1.17;100.00;100139.66;5096110;28;20263;-58
2022/03/01 07:05:49;;;;;;;24.03;12.40;;;;;;;1.19;100.00;100145.47;5096771;28;20660;-58
2022/03/01 07:08:20;;;;;;;21.10;12.03;;;;;;;1.31;100.00;100147.81;5097345;28;20205;-58
2022/03/01 07:10:49;;;;;;;19.10;10.43;;;;;;;1.33;100.00;100148.59;5098792;28;20711;-65
2022/03/01 07:13:18;;;;;;;23.57;11.63;;;;;;;1.36;100.00;100148.53;5096806;28;20290;-58
2022/03/01 07:15:44;;;;;;;19.80;11.60;;;;;;;1.46;100.00;100146.72;5097718;28;20226;-59
2022/03/01 07:18:11;;;;;;;20.13;11.33;;;;;;;1.54;100.00;100148.25;5096968;28;20198;-58
2022/03/01 07:20:38;;;;;;;18.87;11.30;;;;;;;1.55;100.00;100139.81;5096732;28;20233;-65
2022/03/01 07:23:06;;;;;;;21.87;12.23;;;;;;;1.49;100.00;100147.47;5097637;28;20202;-58
2022/03/01 07:25:33;;;;;;;20.60;11.87;;;;;;;1.49;100.00;100150.00;5096618;28;20229;-66
2022/03/01 07:28:00;;;;;;;25.50;12.10;;;;;;;1.65;100.00;100149.72;5097748;28;20228;-58
2022/03/01 07:30:28;;;;;;;26.63;13.37;;;;;;;1.84;100.00;100150.22;5095878;28;20711;-66
2022/03/01 07:32:57;;;;;;;22.33;12.43;;;;;;;1.86;100.00;100153.50;5095030;28;20234;-66
2022/03/01 07:35:25;;;;;;;28.37;14.00;;;;;;;1.97;100.00;100147.41;5096023;28;20226;-66
2022/03/01 07:37:53;;;;;;;24.60;14.07;;;;;;;2.00;100.00;100147.34;5095044;28;20193;-58
2022/03/01 07:40:22;;;;;;;26.10;13.57;;;;;;;2.11;100.00;100148.81;5095655;28;20234;-58
2022/03/01 07:42:49;;;;;;;26.20;13.23;;;;;;;1.84;100.00;100148.50;5095474;28;20213;-66
2022/03/01 07:45:16;;;;;;;27.57;15.03;;;;;;;1.69;100.00;100151.34;5095472;28;20229;-57
2022/03/01 07:47:46;;;;;;;25.50;14.03;;;;;;;1.59;100.00;100156.53;5094878;28;20297;-65
2022/03/01 07:50:13;;;;;;;27.90;14.30;;;;;;;1.46;100.00;100155.09;5095904;28;20238;-66
2022/03/01 07:52:40;;;;;;;32.03;15.23;;;;;;;1.52;100.00;100157.50;5095782;28;20241;-65
2022/03/01 07:55:08;;;;;;;25.60;14.60;;;;;;;1.55;100.00;100152.41;5094967;28;20726;-58
2022/03/01 07:57:35;;;;;;;29.30;15.17;;;;;;;1.64;100.00;100153.09;5098264;28;20262;-66
2022/03/01 08:00:02;;;;;;;26.57;14.60;;;;;;;1.71;100.00;100159.69;5096450;28;20261;-58
2022/03/01 08:02:29;;;;;;;23.57;13.10;;;;;;;1.64;100.00;100153.09;5095113;28;20229;-58
2022/03/01 08:05:00;;;;;;;22.30;11.80;;;;;;;1.76;100.00;100152.88;5096555;28;20301;-58
2022/03/01 08:07:28;;;;;;;24.43;13.87;;;;;;;1.62;100.00;100154.81;5096482;28;20218;-66
2022/03/01 08:09:56;;;;;;;22.80;12.77;;;;;;;1.58;100.00;100154.88;5095932;28;20695;-66
2022/03/01 08:12:23;;;;;;;24.57;13.23;;;;;;;1.68;100.00;100160.56;5093942;28;20232;-65
2022/03/01 08:14:51;;;;;;;23.60;12.30;;;;;;;1.80;100.00;100154.47;5094437;28;20225;-66
2022/03/01 08:17:19;;;;;;;24.40;13.40;;;;;;;1.84;100.00;100161.13;5095790;28;20224;-66
2022/03/01 08:19:46;;;;;;;20.87;11.33;;;;;;;1.90;100.00;100163.53;5097231;28;20237;-58
2022/03/01 08:22:15;;;;;;;22.60;12.57;;;;;;;1.86;100.00;100163.59;5095212;28;20225;-65
2022/03/01 08:24:42;;;;;;;26.37;13.60;;;;;;;1.88;100.00;100160.19;5094651;28;20251;-66
2022/03/01 08:27:09;;;;;;;25.70;13.93;;;;;;;1.99;100.00;100154.94;5094934;28;20202;-58
2022/03/01 08:29:36;;;;;;;22.83;13.33;;;;;;;2.02;100.00;100150.66;5095218;28;20650;-58
2022/03/01 08:32:03;;;;;;;24.43;13.73;;;;;;;2.04;100.00;100154.00;5095830;28;20220;-59
2022/03/01 08:34:30;;;;;;;26.43;14.30;;;;;;;2.14;100.00;100158.84;5093984;28;20241;-59
2022/03/01 08:36:57;;;;;;;24.53;14.23;;;;;;;2.15;100.00;100160.50;5095061;28;20208;-59
2022/03/01 08:39:27;;;;;;;27.57;14.07;;;;;;;2.10;99.96;100152.22;5095060;28;20214;-66
2022/03/01 08:41:55;;;;;;;22.93;12.60;;;;;;;2.12;100.00;100156.34;5095299;28;20197;-66
2022/03/01 08:44:22;;;;;;;23.37;13.07;;;;;;;2.16;99.81;100162.19;5095257;28;20225;-65
2022/03/01 08:46:49;;;;;;;21.87;12.77;;;;;;;2.18;99.90;100161.28;5095239;28;20209;-66
2022/03/01 08:49:16;;;;;;;22.97;12.77;;;;;;;2.18;99.53;100151.19;5095558;28;20201;-66
2022/03/01 08:51:43;;;;;;;21.23;12.70;;;;;;;2.22;100.00;100151.97;5093795;28;20230;-66
2022/03/01 08:54:11;;;;;;;20.87;12.40;;;;;;;2.23;99.39;100156.13;5095038;28;20233;-66
2022/03/01 08:56:40;;;;;;;24.47;14.20;;;;;;;2.21;99.26;100151.13;5093591;28;20232;-58
2022/03/01 08:59:07;;;;;;;33.87;17.53;;;;;;;2.35;99.86;100148.28;5095283;28;20206;-58
2022/03/01 09:01:34;;;;;;;22.43;13.23;;;;;;;2.49;99.57;100151.34;5094983;28;20232;-58
2022/03/01 09:04:01;;;;;;;26.07;14.07;;;;;;;2.37;98.53;100151.63;5094188;28;20627;-66
2022/03/01 09:06:28;;;;;;;24.13;12.37;;;;;;;2.43;98.17;100145.63;5096798;28;20241;-66
2022/03/01 09:08:55;;;;;;;21.70;12.37;;;;;;;2.54;98.02;100143.69;5094294;28;20197;-59
2022/03/01 09:11:22;;;;;;;22.00;12.57;;;;;;;2.43;97.45;100146.44;5094617;28;20265;-58
2022/03/01 09:13:50;;;;;;;21.43;12.53;;;;;;;2.48;98.08;100149.69;5095763;28;20244;-58
2022/03/01 09:16:17;;;;;;;24.73;13.27;;;;;;;2.69;98.39;100148.38;5096862;28;20229;-66
2022/03/01 09:18:44;;;;;;;20.90;12.77;;;;;;;2.79;97.79;100155.75;5094371;28;20338;-58
2022/03/01 09:21:11;;;;;;;20.13;12.10;;;;;;;2.94;97.51;100148.66;5096235;28;20228;-58
2022/03/01 09:23:38;;;;;;;22.77;12.73;;;;;;;2.95;96.06;100152.00;5096099;28;20212;-59
2022/03/01 09:26:04;;;;;;;21.47;12.27;;;;;;;3.22;96.31;100155.53;5095297;28;20225;-65
2022/03/01 09:28:32;;;;;;;18.40;11.77;;;;;;;3.44;94.56;100157.53;5094286;28;20254;-58
2022/03/01 09:31:01;;;;;;;17.43;11.87;;;;;;;3.59;93.15;100157.13;5093991;28;20561;-66
2022/03/01 09:33:28;;;;;;;17.93;9.60;;;;;;;3.50;91.30;100154.84;5093233;28;20230;-58
2022/03/01 09:35:55;;;;;;;20.73;11.60;;;;;;;3.28;91.75;100150.34;5094009;28;20229;-58
2022/03/01 09:38:24;;;;;;;20.27;12.00;;;;;;;3.20;92.47;100157.31;5095890;28;20205;-65
2022/03/01 09:40:52;;;;;;;17.90;11.07;;;;;;;3.11;91.68;100160.03;5095184;28;20639;-58
2022/03/01 09:43:20;;;;;;;20.80;11.47;;;;;;;2.94;91.25;100150.34;5095701;28;20316;-58
2022/03/01 09:45:48;;;;;;;18.70;11.37;;;;;;;3.08;92.01;100155.06;5095291;28;20221;-58
2022/03/01 09:48:17;;;;;;;19.90;11.93;;;;;;;3.15;92.61;100152.34;5093753;28;20205;-58
2022/03/01 09:50:46;;;;;;;18.27;11.00;;;;;;;3.27;89.99;100155.44;5095046;28;20226;-58
2022/03/01 09:53:14;;;;;;;15.43;9.77;;;;;;;3.27;88.97;100153.75;5095155;28;20245;-57
2022/03/01 09:55:41;;;;;;;16.87;9.90;;;;;;;3.28;89.60;100147.81;5093638;28;20224;-65
2022/03/01 09:58:08;;;;;;;15.97;9.40;;;;;;;3.23;89.50;100144.59;5093421;28;20202;-66
2022/03/01 10:00:35;;;;;;;17.67;10.27;;;;;;;3.17;90.34;100149.75;5094670;28;20704;-58
2022/03/01 10:03:02;;;;;;;17.80;10.77;;;;;;;3.21;89.95;100141.25;5096479;28;20305;-66
2022/03/01 10:05:37;;;;;;;16.77;9.83;;;;;;;3.13;90.24;100143.16;5094573;28;20241;-59
2022/03/01 10:08:08;;;;;;;19.23;10.37;;;;;;;3.09;89.92;100144.91;5093534;28;20198;-58
2022/03/01 10:10:41;;;;;;;17.63;10.27;;;;;;;3.08;91.70;100139.88;5094765;28;20225;-66
2022/03/01 10:13:09;;;;;;;16.97;10.43;;;;;;;3.26;92.23;100134.41;5094222;28;20234;-58
2022/03/01 10:15:36;;;;;;;17.90;10.63;;;;;;;3.31;91.50;100137.63;5094345;28;20226;-58
2022/03/01 10:18:12;;;;;;;14.53;9.87;;;;;;;3.34;89.87;100134.19;5093670;28;20215;-66
2022/03/01 10:20:44;;;;;;;15.17;9.47;;;;;;;3.34;90.22;100127.44;5095670;28;20691;-58
2022/03/01 10:23:12;;;;;;;17.13;10.37;;;;;;;3.37;89.87;100132.44;5096657;28;20214;-66
2022/03/01 10:25:42;;;;;;;15.93;10.27;;;;;;;3.37;89.14;100127.38;5098279;28;20225;-58
2022/03/01 10:28:11;;;;;;;16.63;9.63;;;;;;;3.22;88.41;100125.22;5097505;28;20197;-58
2022/03/01 10:30:39;;;;;;;24.60;12.33;;;;;;;2.93;90.43;100124.25;5098516;28;20623;-59
2022/03/01 10:33:10;;;;;;;23.87;13.70;;;;;;;3.06;90.19;100122.25;5096073;28;20198;-66
2022/03/01 10:35:41;;;;;;;22.83;12.70;;;;;;;3.11;89.74;100120.47;5096828;28;20614;-58
2022/03/01 10:38:10;;;;;;;26.00;13.83;;;;;;;3.03;90.17;100111.41;5096946;28;20194;-66
2022/03/01 10:40:39;;;;;;;21.47;11.33;;;;;;;3.00;90.97;100117.38;5097393;28;20718;-57
2022/03/01 10:43:09;;;;;;;22.73;12.27;;;;;;;3.00;91.47;100107.25;5096766;28;20202;-66
2022/03/01 10:45:40;;;;;;;20.30;11.70;;;;;;;2.93;93.71;100109.09;5096888;28;20229;-58
2022/03/01 10:48:09;;;;;;;20.50;11.47;;;;;;;2.95;93.59;100109.88;5096825;28;20212;-66
2022/03/01 10:50:36;;;;;;;19.90;10.73;;;;;;;3.06;93.88;100106.28;5096736;28;20225;-65
2022/03/01 10:53:06;;;;;;;17.60;10.60;;;;;;;2.89;94.79;100099.94;5096825;28;20714;-58
2022/03/01 10:55:36;;;;;;;20.27;11.50;;;;;;;2.74;96.15;100100.31;5097519;28;20233;-65
2022/03/01 10:58:06;;;;;;;20.33;12.00;;;;;;;2.87;97.11;100101.66;5097612;28;20301;-58
2022/03/01 11:00:34;;;;;;;21.50;11.73;;;;;;;2.97;97.37;100101.44;5098579;28;20261;-58
2022/03/01 11:03:03;;;;;;;19.77;11.33;;;;;;;2.68;98.33;100100.47;5097504;28;20202;-66
2022/03/01 11:05:32;;;;;;;19.17;10.47;;;;;;;2.78;99.31;100096.84;5095597;28;20332;-65
2022/03/01 11:08:03;;;;;;;21.43;11.37;;;;;;;2.80;99.85;100094.28;5097638;28;20263;-58
2022/03/01 11:10:33;;;;;;;19.37;11.97;;;;;;;2.76;100.00;100092.69;5096292;28;20229;-66
2022/03/01 11:13:02;;;;;;;19.77;11.53;;;;;;;2.89;100.00;100092.34;5096310;28;20210;-58